Aérodrome :
LOGIN :

S'inscrire | Disclaimer

   EN    FR    IT 

 










Légende :    VFR   VFR Marginal   IFR   IFR Intensif   IFR Très Intensif
Visi : 
Plafond : 
>= 8 km
>= 3000ft
5 à 8 km
1000 à 3000 ft
1500m à 5 km
500 à 1000 ft
800 à 1500m
200 à 500 ft
< 800m
< 200 ft
Symboles :   Orages  Brouillard  Fortes neiges  Fortes précipitations  Vent > 20 kt
SIGMETs :   Divers  Orages  Givrage  Turbulence  Onde Orograph.  Cendres Volcan.






- Altitude de l'aérodrome : 2220 ft


LOXZ - Zeltweg AB

DERNIER METAR :
  • 300850Z VRB01KT 9999 FEW008 SCT020 11/09 Q1010 NOSIG

METARs EXPIRÉS :
  • 300820Z VRB02KT 8000 FEW002 SCT005 BKN020 11/08 Q1010 NOSIG
  • 300750Z 00000KT 8000 FEW002 SCT005 BKN020 10/08 Q1010 NOSIG
  • 300720Z VRB01KT 8000 FEW002 SCT005 BKN020 09/08 Q1009 NOSIG
  • 300650Z VRB01KT 8000 FEW002 SCT005 BKN020 09/08 Q1009 NOSIG
  • 300620Z 08002KT 8000 FEW002 SCT004 BKN020 09/08 Q1008 TEMPO 4000 BKN008

TAF TAF LOXZ
Valide du 30 à 09h jusqu'au 30 à 18h UTC


300815Z 3009/3018 VRB03KT 9999 FEW007 SCT008 BKN060
TEMPO 3009/3010 FEW004 BKN007



MET'MAP, la Météo Aéronautique d'un coup d'oeil ! - Copyright ORBIFLY Décembre 2007 - Disclaimer

ORBIFLY MET'MAP TEAM :

Programmation & Développement : Alexandra Zaïnal
Sur une idée originale de : Baudouin d'Aumeries
Soutien technique & logistique : Manuel Goepfert
Assistance : Marc-Olivier Méhu




SOURCES & CREDITS :

   NOAA